sensor_id;sensor_type;location;lat;lon;timestamp;pressure;altitude;pressure_sealevel;temperature;humidity
31771;BME280;18343;50.152;8.182;2023-05-03T00:02:27;98440.84;;;8.41;66.66
31771;BME280;18343;50.152;8.182;2023-05-03T00:05:12;98445.81;;;8.36;66.58
31771;BME280;18343;50.152;8.182;2023-05-03T00:07:58;98444.00;;;8.27;66.53
31771;BME280;18343;50.152;8.182;2023-05-03T00:10:45;98440.94;;;8.22;66.49
31771;BME280;18343;50.152;8.182;2023-05-03T00:13:30;98446.25;;;8.14;66.84
31771;BME280;18343;50.152;8.182;2023-05-03T00:16:14;98448.53;;;8.09;66.83
31771;BME280;18343;50.152;8.182;2023-05-03T00:18:59;98444.47;;;8.05;67.01
31771;BME280;18343;50.152;8.182;2023-05-03T00:21:43;98445.06;;;7.99;67.36
31771;BME280;18343;50.152;8.182;2023-05-03T00:24:29;98447.34;;;7.94;67.41
31771;BME280;18343;50.152;8.182;2023-05-03T00:27:14;98445.16;;;7.89;67.57
31771;BME280;18343;50.152;8.182;2023-05-03T00:29:59;98451.56;;;7.78;67.42
31771;BME280;18343;50.152;8.182;2023-05-03T00:32:43;98442.66;;;7.60;67.23
31771;BME280;18343;50.152;8.182;2023-05-03T00:35:28;98435.06;;;7.56;67.98
31771;BME280;18343;50.152;8.182;2023-05-03T00:38:13;98427.78;;;7.48;68.02
31771;BME280;18343;50.152;8.182;2023-05-03T00:40:59;98420.19;;;7.43;68.20
31771;BME280;18343;50.152;8.182;2023-05-03T00:43:47;98418.50;;;7.42;68.58
31771;BME280;18343;50.152;8.182;2023-05-03T00:46:32;98423.84;;;7.42;68.74
31771;BME280;18343;50.152;8.182;2023-05-03T00:49:17;98414.00;;;7.43;68.81
31771;BME280;18343;50.152;8.182;2023-05-03T00:52:02;98423.00;;;7.42;68.77
31771;BME280;18343;50.152;8.182;2023-05-03T00:54:47;98417.28;;;7.37;68.99
31771;BME280;18343;50.152;8.182;2023-05-03T00:57:33;98413.22;;;7.33;68.84
31771;BME280;18343;50.152;8.182;2023-05-03T01:00:18;98414.09;;;7.24;68.53
31771;BME280;18343;50.152;8.182;2023-05-03T01:03:03;98407.34;;;7.20;68.88
31771;BME280;18343;50.152;8.182;2023-05-03T01:05:56;98406.94;;;7.14;68.92
31771;BME280;18343;50.152;8.182;2023-05-03T01:08:58;98415.25;;;7.11;69.35
31771;BME280;18343;50.152;8.182;2023-05-03T01:11:53;98412.22;;;7.06;69.57
31771;BME280;18343;50.152;8.182;2023-05-03T01:14:50;98416.16;;;7.02;69.13
31771;BME280;18343;50.152;8.182;2023-05-03T01:20:45;98404.50;;;6.94;70.07
31771;BME280;18343;50.152;8.182;2023-05-03T01:23:40;98407.47;;;6.91;70.22
31771;BME280;18343;50.152;8.182;2023-05-03T01:26:28;98395.38;;;6.87;70.69
31771;BME280;18343;50.152;8.182;2023-05-03T01:29:13;98405.53;;;6.83;70.94
31771;BME280;18343;50.152;8.182;2023-05-03T01:31:59;98397.41;;;6.75;70.53
31771;BME280;18343;50.152;8.182;2023-05-03T01:34:53;98401.34;;;6.71;70.61
31771;BME280;18343;50.152;8.182;2023-05-03T01:37:39;98405.44;;;6.65;70.84
31771;BME280;18343;50.152;8.182;2023-05-03T01:40:25;98406.56;;;6.63;70.71
31771;BME280;18343;50.152;8.182;2023-05-03T01:43:14;98412.66;;;6.55;69.99
31771;BME280;18343;50.152;8.182;2023-05-03T01:45:59;98400.00;;;6.48;71.00
31771;BME280;18343;50.152;8.182;2023-05-03T01:48:44;98400.13;;;6.46;71.50
31771;BME280;18343;50.152;8.182;2023-05-03T01:51:30;98407.44;;;6.44;71.10
31771;BME280;18343;50.152;8.182;2023-05-03T01:54:15;98400.16;;;6.36;71.04
31771;BME280;18343;50.152;8.182;2023-05-03T01:57:00;98408.31;;;6.35;72.05
31771;BME280;18343;50.152;8.182;2023-05-03T01:59:46;98406.19;;;6.38;72.10
31771;BME280;18343;50.152;8.182;2023-05-03T02:02:30;98411.94;;;6.34;72.39
31771;BME280;18343;50.152;8.182;2023-05-03T02:05:15;98416.91;;;6.29;71.93
31771;BME280;18343;50.152;8.182;2023-05-03T02:08:00;98426.59;;;6.20;71.61
31771;BME280;18343;50.152;8.182;2023-05-03T02:10:44;98426.16;;;6.15;71.63
31771;BME280;18343;50.152;8.182;2023-05-03T02:13:29;98430.38;;;6.08;71.52
31771;BME280;18343;50.152;8.182;2023-05-03T02:16:15;98430.94;;;6.02;72.01
31771;BME280;18343;50.152;8.182;2023-05-03T02:19:00;98430.53;;;5.97;72.21
31771;BME280;18343;50.152;8.182;2023-05-03T02:21:44;98440.50;;;5.95;72.13
31771;BME280;18343;50.152;8.182;2023-05-03T02:24:29;98438.25;;;5.90;72.11
31771;BME280;18343;50.152;8.182;2023-05-03T02:27:13;98437.06;;;5.83;72.57
31771;BME280;18343;50.152;8.182;2023-05-03T02:29:58;98434.53;;;5.82;72.78
31771;BME280;18343;50.152;8.182;2023-05-03T02:32:44;98431.75;;;5.83;72.69
31771;BME280;18343;50.152;8.182;2023-05-03T02:35:29;98430.19;;;5.81;73.00
31771;BME280;18343;50.152;8.182;2023-05-03T02:38:13;98436.50;;;5.79;73.21
31771;BME280;18343;50.152;8.182;2023-05-03T02:40:58;98436.06;;;5.74;73.06
31771;BME280;18343;50.152;8.182;2023-05-03T02:43:43;98431.16;;;5.70;73.06
31771;BME280;18343;50.152;8.182;2023-05-03T02:46:30;98437.06;;;5.64;73.13
31771;BME280;18343;50.152;8.182;2023-05-03T02:49:16;98439.84;;;5.62;73.39
31771;BME280;18343;50.152;8.182;2023-05-03T02:52:01;98433.09;;;5.58;73.41
31771;BME280;18343;50.152;8.182;2023-05-03T02:54:46;98433.63;;;5.52;73.69
31771;BME280;18343;50.152;8.182;2023-05-03T02:57:30;98429.56;;;5.48;74.03
31771;BME280;18343;50.152;8.182;2023-05-03T03:00:15;98428.16;;;5.44;73.76
31771;BME280;18343;50.152;8.182;2023-05-03T03:03:00;98426.63;;;5.41;74.04
31771;BME280;18343;50.152;8.182;2023-05-03T03:05:46;98431.63;;;5.35;73.45
31771;BME280;18343;50.152;8.182;2023-05-03T03:08:31;98425.88;;;5.30;73.65
31771;BME280;18343;50.152;8.182;2023-05-03T03:11:15;98416.31;;;5.27;73.93
31771;BME280;18343;50.152;8.182;2023-05-03T03:14:00;98413.78;;;5.26;73.90
31771;BME280;18343;50.152;8.182;2023-05-03T03:16:45;98408.84;;;5.21;74.12
31771;BME280;18343;50.152;8.182;2023-05-03T03:19:30;98406.16;;;5.12;74.54
31771;BME280;18343;50.152;8.182;2023-05-03T03:22:16;98398.88;;;5.14;75.13
31771;BME280;18343;50.152;8.182;2023-05-03T03:25:00;98401.53;;;5.14;75.30
31771;BME280;18343;50.152;8.182;2023-05-03T03:27:45;98395.09;;;5.16;75.51
31771;BME280;18343;50.152;8.182;2023-05-03T03:30:29;98403.81;;;5.18;75.55
31771;BME280;18343;50.152;8.182;2023-05-03T03:33:14;98400.81;;;5.12;74.39
31771;BME280;18343;50.152;8.182;2023-05-03T03:35:59;98401.75;;;5.01;75.02
31771;BME280;18343;50.152;8.182;2023-05-03T03:38:45;98404.44;;;5.01;75.81
31771;BME280;18343;50.152;8.182;2023-05-03T03:41:30;98400.19;;;4.98;76.15
31771;BME280;18343;50.152;8.182;2023-05-03T03:44:15;98395.56;;;4.91;74.80
31771;BME280;18343;50.152;8.182;2023-05-03T03:46:59;98416.13;;;4.79;74.81
31771;BME280;18343;50.152;8.182;2023-05-03T03:49:44;98426.84;;;4.68;74.63
31771;BME280;18343;50.152;8.182;2023-05-03T03:52:29;98427.38;;;4.62;75.88
31771;BME280;18343;50.152;8.182;2023-05-03T03:55:15;98429.38;;;4.69;77.02
31771;BME280;18343;50.152;8.182;2023-05-03T03:58:00;98431.91;;;4.71;76.92
31771;BME280;18343;50.152;8.182;2023-05-03T04:00:44;98439.19;;;4.69;76.56
31771;BME280;18343;50.152;8.182;2023-05-03T04:03:29;98441.97;;;4.67;76.82
31771;BME280;18343;50.152;8.182;2023-05-03T04:06:14;98433.84;;;4.69;77.13
31771;BME280;18343;50.152;8.182;2023-05-03T04:08:58;98442.31;;;4.74;77.19
31771;BME280;18343;50.152;8.182;2023-05-03T04:11:45;98442.56;;;4.71;76.95
31771;BME280;18343;50.152;8.182;2023-05-03T04:14:29;98448.88;;;4.70;77.47
31771;BME280;18343;50.152;8.182;2023-05-03T04:17:14;98447.31;;;4.67;77.44
31771;BME280;18343;50.152;8.182;2023-05-03T04:19:59;98439.31;;;4.67;77.89
31771;BME280;18343;50.152;8.182;2023-05-03T04:22:43;98433.13;;;4.67;78.11
31771;BME280;18343;50.152;8.182;2023-05-03T04:25:28;98425.72;;;4.70;78.30
31771;BME280;18343;50.152;8.182;2023-05-03T04:28:14;98422.81;;;4.73;78.38
31771;BME280;18343;50.152;8.182;2023-05-03T04:30:58;98428.00;;;4.75;78.44
31771;BME280;18343;50.152;8.182;2023-05-03T04:33:43;98425.34;;;4.75;78.08
31771;BME280;18343;50.152;8.182;2023-05-03T04:36:28;98417.94;;;4.79;78.94
31771;BME280;18343;50.152;8.182;2023-05-03T04:39:12;98417.09;;;4.78;78.83
31771;BME280;18343;50.152;8.182;2023-05-03T04:41:57;98426.63;;;4.81;78.88
31771;BME280;18343;50.152;8.182;2023-05-03T04:44:43;98428.28;;;4.72;78.71
31771;BME280;18343;50.152;8.182;2023-05-03T04:47:28;98433.09;;;4.57;79.14
31771;BME280;18343;50.152;8.182;2023-05-03T04:50:14;98428.69;;;4.47;78.75
31771;BME280;18343;50.152;8.182;2023-05-03T04:52:59;98420.56;;;4.48;79.58
31771;BME280;18343;50.152;8.182;2023-05-03T04:55:43;98429.00;;;4.53;79.51
31771;BME280;18343;50.152;8.182;2023-05-03T04:58:28;98429.22;;;4.61;80.59
31771;BME280;18343;50.152;8.182;2023-05-03T05:01:14;98427.69;;;4.68;80.46
31771;BME280;18343;50.152;8.182;2023-05-03T05:03:58;98422.53;;;4.76;80.74
31771;BME280;18343;50.152;8.182;2023-05-03T05:06:43;98421.91;;;4.84;81.57
31771;BME280;18343;50.152;8.182;2023-05-03T05:09:28;98430.34;;;4.89;81.14
31771;BME280;18343;50.152;8.182;2023-05-03T05:12:13;98430.75;;;4.94;81.40
31771;BME280;18343;50.152;8.182;2023-05-03T05:14:57;98422.09;;;4.92;81.16
31771;BME280;18343;50.152;8.182;2023-05-03T05:17:43;98432.03;;;4.90;81.32
31771;BME280;18343;50.152;8.182;2023-05-03T05:20:28;98434.50;;;4.82;81.31
31771;BME280;18343;50.152;8.182;2023-05-03T05:23:12;98424.56;;;4.84;81.54
31771;BME280;18343;50.152;8.182;2023-05-03T05:25:57;98426.25;;;4.85;81.85
31771;BME280;18343;50.152;8.182;2023-05-03T05:28:41;98430.22;;;4.91;82.11
31771;BME280;18343;50.152;8.182;2023-05-03T05:31:26;98429.22;;;4.92;82.17
31771;BME280;18343;50.152;8.182;2023-05-03T05:34:15;98435.81;;;4.97;82.36
31771;BME280;18343;50.152;8.182;2023-05-03T05:37:00;98439.91;;;5.01;82.69
31771;BME280;18343;50.152;8.182;2023-05-03T05:39:45;98434.91;;;5.08;83.10
31771;BME280;18343;50.152;8.182;2023-05-03T05:42:29;98437.63;;;5.18;83.62
31771;BME280;18343;50.152;8.182;2023-05-03T05:45:14;98429.91;;;5.24;83.41
31771;BME280;18343;50.152;8.182;2023-05-03T05:47:58;98436.53;;;5.30;84.00
31771;BME280;18343;50.152;8.182;2023-05-03T05:50:44;98435.72;;;5.39;84.05
31771;BME280;18343;50.152;8.182;2023-05-03T05:53:29;98423.38;;;5.48;84.57
31771;BME280;18343;50.152;8.182;2023-05-03T05:56:14;98419.06;;;5.56;85.00
31771;BME280;18343;50.152;8.182;2023-05-03T05:58:58;98418.78;;;5.59;85.38
31771;BME280;18343;50.152;8.182;2023-05-03T06:01:43;98415.44;;;5.67;85.94
31771;BME280;18343;50.152;8.182;2023-05-03T06:04:28;98416.84;;;5.81;86.15
31771;BME280;18343;50.152;8.182;2023-05-03T06:07:14;98419.44;;;5.92;86.51
31771;BME280;18343;50.152;8.182;2023-05-03T06:09:59;98423.34;;;6.07;87.10
31771;BME280;18343;50.152;8.182;2023-05-03T06:12:44;98441.91;;;6.18;86.85
31771;BME280;18343;50.152;8.182;2023-05-03T06:15:28;98435.16;;;6.33;87.58
31771;BME280;18343;50.152;8.182;2023-05-03T06:18:13;98432.91;;;6.48;87.83
31771;BME280;18343;50.152;8.182;2023-05-03T06:20:57;98428.38;;;6.58;87.70
31771;BME280;18343;50.152;8.182;2023-05-03T06:23:43;98441.72;;;6.77;88.46
31771;BME280;18343;50.152;8.182;2023-05-03T06:26:27;98442.34;;;6.99;88.96
31771;BME280;18343;50.152;8.182;2023-05-03T06:29:12;98442.28;;;7.18;89.52
31771;BME280;18343;50.152;8.182;2023-05-03T06:31:56;98437.84;;;7.36;89.97
31771;BME280;18343;50.152;8.182;2023-05-03T06:34:41;98429.56;;;7.57;90.33
31771;BME280;18343;50.152;8.182;2023-05-03T06:37:25;98436.03;;;7.82;90.92
31771;BME280;18343;50.152;8.182;2023-05-03T06:40:12;98434.00;;;8.11;91.32
31771;BME280;18343;50.152;8.182;2023-05-03T06:42:57;98423.94;;;8.31;91.12
31771;BME280;18343;50.152;8.182;2023-05-03T06:45:42;98423.13;;;8.48;91.43
31771;BME280;18343;50.152;8.182;2023-05-03T06:48:27;98416.22;;;8.64;91.68
31771;BME280;18343;50.152;8.182;2023-05-03T06:51:12;98431.94;;;8.85;91.51
31771;BME280;18343;50.152;8.182;2023-05-03T06:53:58;98417.50;;;9.11;92.24
31771;BME280;18343;50.152;8.182;2023-05-03T06:56:44;98423.16;;;9.34;91.70
31771;BME280;18343;50.152;8.182;2023-05-03T06:59:28;98424.44;;;9.56;92.20
31771;BME280;18343;50.152;8.182;2023-05-03T07:02:13;98423.16;;;9.76;91.68
31771;BME280;18343;50.152;8.182;2023-05-03T07:04:58;98424.19;;;9.92;90.23
31771;BME280;18343;50.152;8.182;2023-05-03T07:07:42;98413.50;;;10.08;90.14
31771;BME280;18343;50.152;8.182;2023-05-03T07:10:27;98410.00;;;10.24;89.93
31771;BME280;18343;50.152;8.182;2023-05-03T07:13:13;98408.16;;;10.40;89.69
31771;BME280;18343;50.152;8.182;2023-05-03T07:15:57;98413.56;;;10.57;89.82
31771;BME280;18343;50.152;8.182;2023-05-03T07:18:42;98412.34;;;10.75;89.03
31771;BME280;18343;50.152;8.182;2023-05-03T07:21:27;98411.34;;;10.93;88.95
31771;BME280;18343;50.152;8.182;2023-05-03T07:24:11;98410.13;;;11.03;87.56
31771;BME280;18343;50.152;8.182;2023-05-03T07:26:56;98406.22;;;11.14;88.11
31771;BME280;18343;50.152;8.182;2023-05-03T07:29:42;98413.25;;;11.31;87.88
31771;BME280;18343;50.152;8.182;2023-05-03T07:32:26;98415.91;;;11.39;85.66
31771;BME280;18343;50.152;8.182;2023-05-03T07:35:12;98411.97;;;11.50;86.05
31771;BME280;18343;50.152;8.182;2023-05-03T07:37:56;98405.38;;;11.61;86.00
31771;BME280;18343;50.152;8.182;2023-05-03T07:40:41;98401.78;;;11.76;86.13
31771;BME280;18343;50.152;8.182;2023-05-03T07:43:26;98405.78;;;11.89;84.71
31771;BME280;18343;50.152;8.182;2023-05-03T07:46:12;98414.59;;;12.05;84.56
31771;BME280;18343;50.152;8.182;2023-05-03T07:48:58;98413.34;;;12.16;83.75
31771;BME280;18343;50.152;8.182;2023-05-03T07:51:42;98394.06;;;12.27;83.15
31771;BME280;18343;50.152;8.182;2023-05-03T07:54:27;98391.94;;;12.37;82.64
31771;BME280;18343;50.152;8.182;2023-05-03T07:57:12;98403.81;;;12.51;82.32
31771;BME280;18343;50.152;8.182;2023-05-03T07:59:57;98399.19;;;12.60;81.64
31771;BME280;18343;50.152;8.182;2023-05-03T08:02:43;98392.69;;;12.69;81.12
31771;BME280;18343;50.152;8.182;2023-05-03T08:05:28;98396.28;;;12.84;80.36
31771;BME280;18343;50.152;8.182;2023-05-03T08:08:13;98390.78;;;12.92;80.07
31771;BME280;18343;50.152;8.182;2023-05-03T08:10:58;98398.16;;;13.13;80.03
31771;BME280;18343;50.152;8.182;2023-05-03T08:13:43;98390.75;;;13.30;78.82
31771;BME280;18343;50.152;8.182;2023-05-03T08:16:28;98393.56;;;13.36;77.32
31771;BME280;18343;50.152;8.182;2023-05-03T08:19:13;98394.38;;;13.51;77.60
31771;BME280;18343;50.152;8.182;2023-05-03T08:21:58;98393.44;;;13.59;76.15
31771;BME280;18343;50.152;8.182;2023-05-03T08:24:43;98388.31;;;13.64;75.50
31771;BME280;18343;50.152;8.182;2023-05-03T08:27:27;98393.03;;;13.77;75.93
31771;BME280;18343;50.152;8.182;2023-05-03T08:30:13;98393.94;;;13.84;73.38
31771;BME280;18343;50.152;8.182;2023-05-03T08:32:57;98394.91;;;13.98;73.74
31771;BME280;18343;50.152;8.182;2023-05-03T08:35:43;98395.72;;;14.13;74.24
31771;BME280;18343;50.152;8.182;2023-05-03T08:38:28;98399.47;;;14.12;71.27
31771;BME280;18343;50.152;8.182;2023-05-03T08:41:20;98405.53;;;14.14;71.16
31771;BME280;18343;50.152;8.182;2023-05-03T08:44:07;98395.84;;;14.26;70.63
31771;BME280;18343;50.152;8.182;2023-05-03T08:46:54;98396.38;;;14.36;70.61
31771;BME280;18343;50.152;8.182;2023-05-03T08:49:41;98388.44;;;14.49;68.81
31771;BME280;18343;50.152;8.182;2023-05-03T08:52:27;98395.16;;;14.60;68.93
31771;BME280;18343;50.152;8.182;2023-05-03T08:55:12;98392.41;;;14.75;68.46
31771;BME280;18343;50.152;8.182;2023-05-03T08:57:59;98393.53;;;14.87;67.52
31771;BME280;18343;50.152;8.182;2023-05-03T09:00:44;98388.94;;;14.87;66.66
31771;BME280;18343;50.152;8.182;2023-05-03T09:03:28;98388.34;;;14.92;65.66
31771;BME280;18343;50.152;8.182;2023-05-03T09:06:19;98378.66;;;15.04;65.66
31771;BME280;18343;50.152;8.182;2023-05-03T09:09:06;98377.22;;;15.08;63.67
31771;BME280;18343;50.152;8.182;2023-05-03T09:11:50;98389.91;;;15.08;63.60
31771;BME280;18343;50.152;8.182;2023-05-03T09:14:42;98393.25;;;15.10;62.13
31771;BME280;18343;50.152;8.182;2023-05-03T09:17:27;98390.09;;;15.06;61.28
31771;BME280;18343;50.152;8.182;2023-05-03T09:20:15;98389.56;;;15.17;61.53
31771;BME280;18343;50.152;8.182;2023-05-03T09:23:00;98383.16;;;15.25;60.54
31771;BME280;18343;50.152;8.182;2023-05-03T09:25:48;98379.88;;;15.30;59.34
31771;BME280;18343;50.152;8.182;2023-05-03T09:28:40;98378.84;;;15.37;59.58
31771;BME280;18343;50.152;8.182;2023-05-03T09:31:26;98381.19;;;15.47;59.02
31771;BME280;18343;50.152;8.182;2023-05-03T09:34:22;98381.25;;;15.53;58.99
31771;BME280;18343;50.152;8.182;2023-05-03T09:37:07;98376.50;;;15.62;58.33
31771;BME280;18343;50.152;8.182;2023-05-03T09:40:04;98375.31;;;15.78;58.58
31771;BME280;18343;50.152;8.182;2023-05-03T09:43:12;98366.31;;;15.71;56.62
31771;BME280;18343;50.152;8.182;2023-05-03T09:46:08;98367.41;;;15.83;56.13
31771;BME280;18343;50.152;8.182;2023-05-03T09:48:53;98367.78;;;15.73;54.51
31771;BME280;18343;50.152;8.182;2023-05-03T09:51:37;98353.81;;;15.70;54.62
31771;BME280;18343;50.152;8.182;2023-05-03T11:17:12;98318.63;;;15.96;53.89
31771;BME280;18343;50.152;8.182;2023-05-03T11:19:57;98304.06;;;16.83;50.91
31771;BME280;18343;50.152;8.182;2023-05-03T11:22:43;98308.59;;;17.15;49.39
31771;BME280;18343;50.152;8.182;2023-05-03T11:25:27;98303.19;;;17.67;47.92
31771;BME280;18343;50.152;8.182;2023-05-03T11:28:12;98297.28;;;18.08;48.08
31771;BME280;18343;50.152;8.182;2023-05-03T11:30:57;98298.13;;;18.40;47.45
31771;BME280;18343;50.152;8.182;2023-05-03T11:33:44;98295.44;;;18.33;45.29
31771;BME280;18343;50.152;8.182;2023-05-03T11:36:28;98292.97;;;18.56;45.40
31771;BME280;18343;50.152;8.182;2023-05-03T11:39:13;98291.31;;;18.80;45.76
31771;BME280;18343;50.152;8.182;2023-05-03T11:42:02;98276.56;;;19.06;44.95
31771;BME280;18343;50.152;8.182;2023-05-03T11:44:46;98271.63;;;19.15;44.60
31771;BME280;18343;50.152;8.182;2023-05-03T11:47:31;98275.66;;;19.31;44.00
31771;BME280;18343;50.152;8.182;2023-05-03T11:50:25;98276.81;;;19.41;43.41
31771;BME280;18343;50.152;8.182;2023-05-03T11:53:11;98269.91;;;19.57;43.47
31771;BME280;18343;50.152;8.182;2023-05-03T11:55:55;98275.53;;;19.62;42.38
31771;BME280;18343;50.152;8.182;2023-05-03T11:58:52;98261.56;;;19.52;42.40
31771;BME280;18343;50.152;8.182;2023-05-03T12:01:37;98266.56;;;19.55;41.58
31771;BME280;18343;50.152;8.182;2023-05-03T12:04:22;98268.09;;;19.33;41.10
31771;BME280;18343;50.152;8.182;2023-05-03T12:07:09;98273.69;;;19.38;40.70
31771;BME280;18343;50.152;8.182;2023-05-03T12:09:54;98265.88;;;19.59;40.99
31771;BME280;18343;50.152;8.182;2023-05-03T12:12:39;98267.75;;;19.77;40.57
31771;BME280;18343;50.152;8.182;2023-05-03T12:15:32;98274.03;;;19.78;40.33
31771;BME280;18343;50.152;8.182;2023-05-03T12:18:17;98278.16;;;19.69;39.49
31771;BME280;18343;50.152;8.182;2023-05-03T12:21:02;98278.88;;;19.76;39.30
31771;BME280;18343;50.152;8.182;2023-05-03T12:23:49;98274.56;;;19.86;39.56
31771;BME280;18343;50.152;8.182;2023-05-03T12:26:34;98262.50;;;20.06;39.43
31771;BME280;18343;50.152;8.182;2023-05-03T12:29:18;98265.41;;;20.22;39.24
31771;BME280;18343;50.152;8.182;2023-05-03T12:32:03;98258.03;;;20.23;38.47
31771;BME280;18343;50.152;8.182;2023-05-03T12:34:49;98256.25;;;20.17;38.44
31771;BME280;18343;50.152;8.182;2023-05-03T12:37:34;98245.47;;;20.22;38.84
31771;BME280;18343;50.152;8.182;2023-05-03T12:40:21;98245.91;;;20.19;38.28
31771;BME280;18343;50.152;8.182;2023-05-03T12:43:05;98243.72;;;20.39;38.73
31771;BME280;18343;50.152;8.182;2023-05-03T12:45:50;98246.94;;;20.48;37.57
31771;BME280;18343;50.152;8.182;2023-05-03T12:48:35;98242.31;;;20.48;38.15
31771;BME280;18343;50.152;8.182;2023-05-03T12:51:22;98232.19;;;20.60;37.74
31771;BME280;18343;50.152;8.182;2023-05-03T12:54:07;98224.72;;;20.68;37.76
31771;BME280;18343;50.152;8.182;2023-05-03T12:56:53;98216.16;;;20.64;37.07
31771;BME280;18343;50.152;8.182;2023-05-03T12:59:38;98220.91;;;20.57;36.93
31771;BME280;18343;50.152;8.182;2023-05-03T13:02:22;98220.66;;;20.82;36.77
31771;BME280;18343;50.152;8.182;2023-05-03T13:05:07;98209.72;;;20.82;36.64
31771;BME280;18343;50.152;8.182;2023-05-03T13:07:52;98204.00;;;20.95;36.79
31771;BME280;18343;50.152;8.182;2023-05-03T13:10:37;98205.31;;;21.04;36.62
31771;BME280;18343;50.152;8.182;2023-05-03T13:13:24;98203.50;;;21.21;36.81
31771;BME280;18343;50.152;8.182;2023-05-03T13:16:09;98206.88;;;21.00;35.17
31771;BME280;18343;50.152;8.182;2023-05-03T13:18:53;98206.38;;;21.03;36.22
31771;BME280;18343;50.152;8.182;2023-05-03T13:21:38;98207.78;;;21.17;36.07
31771;BME280;18343;50.152;8.182;2023-05-03T13:24:23;98209.66;;;21.17;35.56
31771;BME280;18343;50.152;8.182;2023-05-03T13:27:08;98199.13;;;21.20;35.89
31771;BME280;18343;50.152;8.182;2023-05-03T13:29:54;98195.75;;;21.30;35.21
31771;BME280;18343;50.152;8.182;2023-05-03T13:32:39;98186.63;;;21.24;34.99
31771;BME280;18343;50.152;8.182;2023-05-03T13:35:23;98192.88;;;21.37;35.72
31771;BME280;18343;50.152;8.182;2023-05-03T13:38:09;98181.44;;;21.40;35.20
31771;BME280;18343;50.152;8.182;2023-05-03T13:40:53;98182.16;;;21.63;35.33
31771;BME280;18343;50.152;8.182;2023-05-03T13:43:38;98180.06;;;21.82;35.36
31771;BME280;18343;50.152;8.182;2023-05-03T13:46:23;98177.31;;;21.99;34.93
31771;BME280;18343;50.152;8.182;2023-05-03T13:49:09;98170.94;;;21.93;34.74
31771;BME280;18343;50.152;8.182;2023-05-03T13:51:54;98171.66;;;21.89;34.46
31771;BME280;18343;50.152;8.182;2023-05-03T13:54:38;98182.13;;;21.92;35.03
31771;BME280;18343;50.152;8.182;2023-05-03T13:57:23;98178.03;;;22.06;34.81
31771;BME280;18343;50.152;8.182;2023-05-03T14:00:10;98175.19;;;22.18;34.70
31771;BME280;18343;50.152;8.182;2023-05-03T14:02:56;98163.00;;;22.25;34.66
31771;BME280;18343;50.152;8.182;2023-05-03T14:05:41;98163.16;;;22.36;34.14
31771;BME280;18343;50.152;8.182;2023-05-03T14:08:26;98159.94;;;22.39;34.49
31771;BME280;18343;50.152;8.182;2023-05-03T14:11:13;98150.72;;;22.28;33.97
31771;BME280;18343;50.152;8.182;2023-05-03T14:13:58;98143.16;;;22.35;34.46
31771;BME280;18343;50.152;8.182;2023-05-03T14:16:43;98140.03;;;22.48;34.31
31771;BME280;18343;50.152;8.182;2023-05-03T14:19:29;98136.56;;;22.53;34.29
31771;BME280;18343;50.152;8.182;2023-05-03T14:22:14;98137.38;;;22.53;33.83
31771;BME280;18343;50.152;8.182;2023-05-03T14:24:59;98132.47;;;22.55;34.02
31771;BME280;18343;50.152;8.182;2023-05-03T14:27:43;98135.38;;;22.66;33.85
31771;BME280;18343;50.152;8.182;2023-05-03T14:30:28;98126.25;;;22.60;33.84
31771;BME280;18343;50.152;8.182;2023-05-03T14:33:13;98133.13;;;22.62;33.44
31771;BME280;18343;50.152;8.182;2023-05-03T14:36:04;98125.09;;;22.56;33.93
31771;BME280;18343;50.152;8.182;2023-05-03T14:38:52;98128.59;;;22.73;33.59
31771;BME280;18343;50.152;8.182;2023-05-03T14:41:36;98117.81;;;22.83;33.50
31771;BME280;18343;50.152;8.182;2023-05-03T14:44:21;98120.38;;;22.90;33.64
31771;BME280;18343;50.152;8.182;2023-05-03T14:47:05;98109.94;;;23.14;33.94
31771;BME280;18343;50.152;8.182;2023-05-03T14:49:50;98112.81;;;23.24;34.12
31771;BME280;18343;50.152;8.182;2023-05-03T14:52:37;98116.28;;;23.14;32.99
31771;BME280;18343;50.152;8.182;2023-05-03T14:55:22;98113.84;;;23.18;32.95
31771;BME280;18343;50.152;8.182;2023-05-03T14:58:10;98100.91;;;23.13;32.89
31771;BME280;18343;50.152;8.182;2023-05-03T15:00:54;98110.53;;;23.16;32.86
31771;BME280;18343;50.152;8.182;2023-05-03T15:03:41;98113.84;;;23.18;32.78
31771;BME280;18343;50.152;8.182;2023-05-03T15:06:27;98106.53;;;23.28;33.44
31771;BME280;18343;50.152;8.182;2023-05-03T15:09:14;98114.28;;;23.10;31.92
31771;BME280;18343;50.152;8.182;2023-05-03T15:11:59;98117.38;;;22.75;32.19
31771;BME280;18343;50.152;8.182;2023-05-03T15:14:44;98108.69;;;22.78;32.12
31771;BME280;18343;50.152;8.182;2023-05-03T15:17:29;98104.16;;;22.88;32.39
31771;BME280;18343;50.152;8.182;2023-05-03T15:20:14;98105.72;;;22.62;31.61
31771;BME280;18343;50.152;8.182;2023-05-03T15:22:59;98095.19;;;22.54;31.46
31771;BME280;18343;50.152;8.182;2023-05-03T15:25:45;98095.19;;;22.54;31.65
31771;BME280;18343;50.152;8.182;2023-05-03T15:28:30;98108.91;;;22.54;31.11
31771;BME280;18343;50.152;8.182;2023-05-03T15:31:15;98106.91;;;22.50;31.18
31771;BME280;18343;50.152;8.182;2023-05-03T15:34:00;98099.00;;;22.53;31.20
31771;BME280;18343;50.152;8.182;2023-05-03T15:36:45;98109.09;;;22.31;30.63
31771;BME280;18343;50.152;8.182;2023-05-03T15:39:30;98111.94;;;22.19;30.68
31771;BME280;18343;50.152;8.182;2023-05-03T15:42:19;98110.81;;;22.15;31.21
31771;BME280;18343;50.152;8.182;2023-05-03T15:45:06;98106.78;;;22.23;31.40
31771;BME280;18343;50.152;8.182;2023-05-03T15:47:53;98096.19;;;22.10;30.50
31771;BME280;18343;50.152;8.182;2023-05-03T15:50:38;98091.59;;;21.99;30.20
31771;BME280;18343;50.152;8.182;2023-05-03T15:53:24;98094.16;;;21.88;30.58
31771;BME280;18343;50.152;8.182;2023-05-03T15:56:12;98093.25;;;22.00;30.73
31771;BME280;18343;50.152;8.182;2023-05-03T15:58:58;98082.22;;;21.94;30.66
31771;BME280;18343;50.152;8.182;2023-05-03T16:01:43;98082.22;;;21.94;30.40
31771;BME280;18343;50.152;8.182;2023-05-03T16:04:28;98087.53;;;21.84;30.03
31771;BME280;18343;50.152;8.182;2023-05-03T16:07:12;98088.03;;;21.81;30.29
31771;BME280;18343;50.152;8.182;2023-05-03T16:09:58;98094.00;;;21.78;30.35